Time;durP1;ratioP1;P1;durP2;ratioP2;P2;SDS_P1;SDS_P2;PMS_P1;PMS_P2;Temp;Humidity;BMP_temperature;BMP_pressure;BME280_temperature;BME280_humidity;BME280_pressure;Samples;Min_cycle;Max_cycle;Signal;HPM_P1;HPM_P2
2023/11/28 07:42:59;;;;;;;0.20;0.20;;;;;;;12.91;100.00;75194.56;6243966;23;20044;-82
2023/11/28 07:45:36;;;;;;;0.20;0.20;;;;;;;12.35;100.00;75131.50;6241840;23;20047;-82
2023/11/28 07:48:54;;;;;;;0.20;0.20;;;;;;;13.00;100.00;75205.34;6098516;23;20005;-82
2023/11/28 07:52:04;;;;;;;0.20;0.20;;;;;;;12.46;100.00;75139.13;6243835;23;20023;-82
2023/11/28 07:54:48;;;;;;;0.30;0.30;;;;;;;12.73;100.00;75173.00;6211234;23;20005;-83
2023/11/28 08:08:33;;;;;;;0.20;0.20;;;;;;;12.79;100.00;75180.19;6264739;22;20012;-82
2023/11/28 08:15:12;;;;;;;0.20;0.20;;;;;;;12.88;100.00;75187.59;6305540;22;20068;-82
2023/11/28 11:36:15;;;;;;;0.20;0.20;;;;;;;15.85;88.92;75534.03;6286296;22;20027;-81
2023/11/28 11:38:52;;;;;;;0.20;0.20;;;;;;;15.30;90.22;75474.84;6225896;22;20091;-81
2023/11/28 11:41:20;;;;;;;0.20;0.20;;;;;;;14.31;95.39;75353.03;6302601;22;19988;-82
2023/11/28 11:43:54;;;;;;;0.20;0.20;;;;;;;14.33;100.00;75361.59;6272270;22;20011;-82
2023/11/28 11:46:27;;;;;;;0.20;0.20;;;;;;;14.21;100.00;75350.00;6294331;22;20004;-81
2023/11/28 11:49:11;;;;;;;0.20;0.20;;;;;;;14.64;100.00;75398.13;6300202;22;20010;-81
2023/11/28 11:51:57;;;;;;;0.20;0.20;;;;;;;14.64;100.00;75398.13;6301116;22;20008;-81
2023/11/28 12:03:02;;;;;;;0.20;0.20;;;;;;;14.64;100.00;75397.53;6290428;22;20030;-82
2023/11/28 12:06:01;;;;;;;0.20;0.20;;;;;;;14.12;100.00;75336.44;6278226;22;20058;-83
2023/11/28 12:40:12;;;;;;;0.20;0.20;;;;;;;14.08;90.51;75337.22;6256833;22;20003;-81
2023/11/28 12:43:02;;;;;;;0.20;0.20;;;;;;;14.23;94.68;75344.06;6299784;22;20038;-81
2023/11/28 12:45:33;;;;;;;0.20;0.20;;;;;;;14.05;96.23;75328.66;6301179;22;19988;-81
2023/11/28 12:48:06;;;;;;;0.20;0.20;;;;;;;14.97;96.73;75428.16;6270713;22;20065;-81
2023/11/28 12:50:59;;;;;;;0.20;0.20;;;;;;;15.30;95.26;75478.22;6301432;22;20003;-81
2023/11/28 12:54:31;;;;;;;0.20;0.20;;;;;;;15.12;93.37;75453.84;6294286;22;20011;-81
2023/11/28 13:36:46;;;;;;;0.20;0.20;;;;;;;14.56;81.38;75383.00;6263416;22;20030;-81
2023/11/28 13:39:42;;;;;;;0.20;0.20;;;;;;;14.79;79.87;75412.13;6278186;22;20035;-81
2023/11/28 13:42:19;;;;;;;0.20;0.20;;;;;;;14.83;81.43;75416.94;6283487;22;20011;-81
2023/11/28 13:44:51;;;;;;;0.20;0.20;;;;;;;14.92;79.58;75427.72;6296565;22;20011;-81
2023/11/28 13:47:21;;;;;;;0.20;0.20;;;;;;;14.82;77.59;75418.53;6298530;22;20030;-81
2023/11/28 13:50:26;;;;;;;0.28;0.28;;;;;;;15.42;78.40;75489.22;6276309;22;20008;-81
2023/11/28 13:52:57;;;;;;;0.20;0.20;;;;;;;15.46;78.33;75486.25;6297248;22;20000;-81
2023/11/28 13:55:33;;;;;;;0.20;0.20;;;;;;;14.88;79.83;75428.50;6274049;22;20038;-81
2023/11/28 13:58:00;;;;;;;0.20;0.20;;;;;;;14.80;80.43;75405.56;6299873;22;20003;-81
2023/11/28 14:00:28;;;;;;;0.20;0.20;;;;;;;14.98;81.21;75434.31;6299920;22;20004;-81
2023/11/28 14:02:58;;;;;;;0.20;0.20;;;;;;;15.07;82.17;75442.91;6297401;22;20018;-81
2023/11/28 14:05:24;;;;;;;0.20;0.20;;;;;;;14.64;86.12;75398.13;6249287;22;20018;-81
2023/11/28 14:07:52;;;;;;;0.20;0.20;;;;;;;14.34;94.30;75356.63;6301286;22;19980;-81
2023/11/28 14:10:27;;;;;;;0.20;0.20;;;;;;;13.95;93.77;75316.06;6301563;22;20022;-81
2023/11/28 14:13:12;;;;;;;0.20;0.20;;;;;;;13.69;94.26;75282.75;6250433;22;20027;-81
2023/11/28 14:15:54;;;;;;;0.20;0.20;;;;;;;14.02;96.31;75318.91;6303402;22;20019;-81
2023/11/28 14:19:06;;;;;;;0.25;0.25;;;;;;;13.88;97.59;75302.72;6222081;23;19997;-80
2023/11/28 14:22:00;;;;;;;0.20;0.20;;;;;;;13.82;98.34;75301.72;6241515;23;20036;-81
2023/11/28 14:24:40;;;;;;;0.20;0.20;;;;;;;13.25;96.94;75234.06;6238294;23;20064;-81
2023/11/28 14:28:03;;;;;;;0.20;0.20;;;;;;;13.61;100.00;75273.78;6218039;23;20000;-81
2023/11/28 14:30:33;;;;;;;0.20;0.20;;;;;;;13.36;97.89;75247.22;6279090;22;20014;-81
2023/11/28 14:33:00;;;;;;;0.20;0.20;;;;;;;13.17;98.20;75221.69;6298955;22;20004;-81
2023/11/28 14:36:20;;;;;;;0.20;0.20;;;;;;;13.24;98.58;75227.31;6273751;22;19988;-81
2023/11/28 14:42:13;;;;;;;0.30;0.30;;;;;;;13.07;96.75;75210.94;6207196;23;20012;-81
2023/11/28 14:45:32;;;;;;;0.20;0.20;;;;;;;13.22;98.48;75225.53;6203359;23;20036;-80
2023/11/28 14:52:15;;;;;;;0.30;0.30;;;;;;;12.95;99.17;75199.34;6213866;23;20028;-81
2023/11/28 14:55:14;;;;;;;0.30;0.30;;;;;;;12.26;97.99;75112.44;6208787;23;20035;-81
2023/11/28 14:58:06;;;;;;;0.30;0.30;;;;;;;12.74;98.55;75174.22;6196923;23;20016;-81
2023/11/28 15:00:45;;;;;;;0.20;0.20;;;;;;;12.64;100.00;75162.25;6134633;23;20013;-81
2023/11/28 15:04:19;;;;;;;0.20;0.20;;;;;;;12.72;100.00;75171.81;6186725;23;20012;-81
2023/11/28 15:07:25;;;;;;;0.20;0.20;;;;;;;12.70;100.00;75163.88;6210153;23;20001;-81
2023/11/28 15:19:19;;;;;;;0.30;0.30;;;;;;;12.07;100.00;75096.44;6210599;22;20088;-81
2023/11/28 15:22:28;;;;;;;0.20;0.20;;;;;;;11.78;100.00;75062.34;6173321;23;20043;-81
2023/11/28 15:24:58;;;;;;;0.20;0.20;;;;;;;11.76;97.25;75059.94;6196354;23;20025;-81
2023/11/28 15:27:35;;;;;;;0.20;0.20;;;;;;;12.22;98.60;75111.03;6204487;23;20009;-81
2023/11/28 15:30:26;;;;;;;0.20;0.20;;;;;;;11.62;99.40;75037.69;6183478;23;20004;-80
2023/11/28 15:33:00;;;;;;;0.20;0.20;;;;;;;11.64;100.00;75042.25;6210476;23;20005;-81
2023/11/28 15:36:30;;;;;;;0.25;0.25;;;;;;;11.96;100.00;75080.53;6091122;23;20013;-81
2023/11/28 15:39:03;;;;;;;0.20;0.20;;;;;;;11.64;100.00;75047.78;6176477;23;20005;-81
2023/11/28 15:41:33;;;;;;;0.20;0.20;;;;;;;11.95;100.00;75082.09;6176191;23;20000;-81
2023/11/28 15:44:01;;;;;;;0.20;0.20;;;;;;;11.42;100.00;75017.13;6147693;23;20017;-81
2023/11/28 15:46:28;;;;;;;0.20;0.20;;;;;;;11.57;100.00;75036.66;6175862;23;20059;-81
2023/11/28 15:48:58;;;;;;;0.20;0.20;;;;;;;11.42;99.61;75019.31;6173710;23;20012;-80
2023/11/28 15:51:25;;;;;;;0.20;0.20;;;;;;;11.49;96.52;75031.03;6176647;23;20006;-80
2023/11/28 15:54:04;;;;;;;0.30;0.30;;;;;;;11.53;94.20;75033.06;6127757;23;20018;-80
2023/11/28 15:56:52;;;;;;;0.30;0.30;;;;;;;11.66;92.68;75047.41;6152455;23;20010;-82
2023/11/28 15:59:47;;;;;;;0.25;0.25;;;;;;;11.76;94.68;75056.59;6182006;23;19994;-81
2023/11/28 17:57:41;;;;;;;0.30;0.30;;;;;;;10.73;100.00;74936.47;6246482;22;20034;-81
2023/11/28 18:00:12;;;;;;;0.20;0.20;;;;;;;10.65;100.00;74934.59;6241205;23;20019;-81
2023/11/28 18:02:56;;;;;;;0.20;0.20;;;;;;;10.45;100.00;74906.38;6263584;23;20008;-81
2023/11/28 18:05:26;;;;;;;0.20;0.20;;;;;;;10.28;100.00;74883.31;6268227;23;19992;-81
2023/11/28 18:08:14;;;;;;;0.20;0.20;;;;;;;10.20;100.00;74871.56;6267059;23;20004;-81
2023/11/28 18:10:43;;;;;;;0.30;0.30;;;;;;;10.48;100.00;74909.94;6263973;23;20007;-81
2023/11/28 18:13:13;;;;;;;0.30;0.30;;;;;;;10.71;100.00;74936.25;6267557;23;19993;-81
2023/11/28 18:15:42;;;;;;;0.30;0.30;;;;;;;10.70;100.00;74932.28;6266887;23;20064;-81
2023/11/28 18:18:10;;;;;;;0.20;0.20;;;;;;;10.47;100.00;74908.75;6237353;23;20057;-80
2023/11/28 18:20:43;;;;;;;0.20;0.20;;;;;;;10.37;100.00;74898.97;6264927;23;20004;-80
2023/11/28 18:23:19;;;;;;;0.20;0.20;;;;;;;10.41;100.00;74901.00;6216629;23;20023;-80
2023/11/28 18:26:14;;;;;;;0.30;0.30;;;;;;;10.77;100.00;74943.41;6249381;22;20055;-81
2023/11/28 18:29:13;;;;;;;0.20;0.20;;;;;;;10.66;100.00;74928.09;6149758;23;20000;-81
2023/11/28 18:31:52;;;;;;;0.20;0.20;;;;;;;10.45;100.00;74903.03;6123739;23;19997;-81
2023/11/28 18:34:37;;;;;;;0.20;0.20;;;;;;;10.90;100.00;74958.94;6176102;23;20015;-81
2023/11/28 18:37:15;;;;;;;0.30;0.30;;;;;;;10.90;100.00;74958.34;6246963;23;19994;-81
2023/11/28 18:40:43;;;;;;;0.20;0.20;;;;;;;10.49;100.00;74910.56;6221973;22;19988;-81
2023/11/28 18:43:33;;;;;;;0.20;0.20;;;;;;;10.26;100.00;74888.59;6242855;23;20081;-81
2023/11/28 18:46:27;;;;;;;0.30;0.30;;;;;;;10.62;100.00;74923.31;6268997;22;19996;-81
2023/11/28 18:49:17;;;;;;;0.20;0.20;;;;;;;10.60;100.00;74925.84;6273747;22;19988;-80
2023/11/28 18:52:08;;;;;;;0.20;0.20;;;;;;;10.67;100.00;74937.59;6247504;23;20012;-81
2023/11/28 18:54:41;;;;;;;0.20;0.20;;;;;;;10.38;100.00;74900.78;6271478;22;20008;-81
2023/11/28 18:57:38;;;;;;;0.20;0.20;;;;;;;10.27;100.00;74884.88;6271174;23;20046;-81
2023/11/28 19:01:02;;;;;;;0.20;0.20;;;;;;;10.50;100.00;74906.22;6274048;22;20008;-81
2023/11/28 19:10:05;;;;;;;0.20;0.20;;;;;;;10.45;100.00;74906.38;6261124;22;20019;-82
2023/11/28 19:13:08;;;;;;;0.30;0.30;;;;;;;10.84;100.00;74951.78;6222245;22;20016;-82
2023/11/28 19:15:57;;;;;;;;;;;;;;;10.84;100.00;74951.19;6299993;22;20020;-82
2023/11/28 19:22:31;;;;;;;0.30;0.30;;;;;;;10.06;100.00;74854.25;6302477;22;20038;-82
2023/11/28 19:25:13;;;;;;;0.30;0.30;;;;;;;10.07;100.00;74860.97;6275288;22;19984;-82
2023/11/28 19:28:09;;;;;;;0.30;0.30;;;;;;;10.11;100.00;74868.50;6210147;22;20040;-82
2023/11/28 19:32:08;;;;;;;0.20;0.20;;;;;;;9.84;100.00;74831.94;6266847;23;20077;-82
2023/11/28 19:35:19;;;;;;;0.30;0.30;;;;;;;10.54;100.00;74913.16;6263498;23;20016;-82
2023/11/28 19:38:18;;;;;;;0.30;0.30;;;;;;;10.51;100.00;74912.34;6227987;23;20026;-82
2023/11/28 19:44:18;;;;;;;0.30;0.30;;;;;;;10.26;100.00;74880.91;6252723;22;20031;-81
2023/11/28 19:47:09;;;;;;;0.20;0.20;;;;;;;10.12;100.00;74867.53;6268030;23;20048;-81
2023/11/28 19:50:10;;;;;;;0.30;0.30;;;;;;;9.98;100.00;74851.41;6246149;23;20004;-82
2023/11/28 21:09:52;;;;;;;0.30;0.30;;;;;;;10.35;100.00;74894.44;6225128;22;20050;-82
2023/11/28 21:13:12;;;;;;;0.20;0.20;;;;;;;10.37;100.00;74899.56;6246406;23;20004;-82
2023/11/28 21:16:32;;;;;;;0.30;0.30;;;;;;;10.37;100.00;74899.56;6268977;23;20019;-82
2023/11/28 21:19:01;;;;;;;0.20;0.20;;;;;;;10.07;100.00;74858.81;6267527;23;20741;-81
2023/11/28 21:22:01;;;;;;;0.20;0.20;;;;;;;9.96;100.00;74846.28;6263502;22;20016;-81
2023/11/28 21:25:00;;;;;;;0.30;0.30;;;;;;;9.98;100.00;74850.81;6155386;23;20005;-81
2023/11/28 21:28:45;;;;;;;0.30;0.30;;;;;;;10.16;100.00;74871.72;6095586;23;20019;-81
2023/11/28 21:31:44;;;;;;;;;;;;;;;10.44;100.00;74905.19;6183158;23;20001;-80
2023/11/28 21:44:51;;;;;;;0.30;0.30;;;;;;;10.27;100.00;74881.50;6238469;22;20033;-81
2023/11/28 21:47:20;;;;;;;0.20;0.20;;;;;;;10.08;100.00;74862.75;6271844;22;20008;-81
2023/11/28 21:49:49;;;;;;;0.20;0.20;;;;;;;10.02;100.00;74858.38;6297264;22;20086;-80
2023/11/28 21:52:18;;;;;;;0.20;0.20;;;;;;;10.10;100.00;74867.31;6298287;22;20022;-81
2023/11/28 21:54:44;;;;;;;0.20;0.20;;;;;;;9.96;100.00;74849.03;6299469;22;20004;-81
2023/11/28 21:57:22;;;;;;;0.30;0.30;;;;;;;10.08;100.00;74862.75;6300430;22;20008;-80
2023/11/28 22:00:10;;;;;;;0.30;0.30;;;;;;;10.19;100.00;74875.31;6273168;22;20055;-80
2023/11/28 22:03:17;;;;;;;0.30;0.30;;;;;;;9.91;100.00;74843.06;6302991;22;19994;-81
2023/11/28 22:05:45;;;;;;;0.30;0.30;;;;;;;9.74;100.00;74824.91;6261166;22;20011;-81
2023/11/28 22:08:16;;;;;;;0.30;0.30;;;;;;;9.71;100.00;74825.28;6270272;22;20004;-81
2023/11/28 22:10:58;;;;;;;0.30;0.30;;;;;;;9.71;100.00;74814.25;6298952;22;20026;-80
2023/11/28 22:13:23;;;;;;;0.30;0.30;;;;;;;10.17;100.00;74872.91;6274154;22;20015;-81
2023/11/28 22:15:53;;;;;;;0.20;0.20;;;;;;;10.13;100.00;74868.13;6301396;22;20023;-81
2023/11/28 22:18:35;;;;;;;0.30;0.30;;;;;;;9.79;100.00;74828.72;6297650;22;20007;-81
2023/11/28 22:21:04;;;;;;;0.30;0.30;;;;;;;10.08;100.00;74864.94;6301129;22;20000;-81
2023/11/28 22:23:31;;;;;;;0.30;0.30;;;;;;;10.22;100.00;74879.47;6273518;22;20007;-81
2023/11/28 22:26:02;;;;;;;0.30;0.30;;;;;;;9.70;100.00;74818.56;6298662;22;19999;-80
2023/11/28 22:28:56;;;;;;;0.30;0.30;;;;;;;10.24;100.00;74875.78;6250003;22;20003;-80
2023/11/28 22:31:26;;;;;;;;;;;;;;;10.30;100.00;74885.69;6274140;22;20003;-80
2023/11/28 22:33:55;;;;;;;0.30;0.30;;;;;;;10.12;100.00;74866.94;6302257;22;19907;-80
2023/11/28 22:36:44;;;;;;;0.20;0.20;;;;;;;10.16;100.00;74871.72;6279657;22;20015;-80
2023/11/28 22:39:36;;;;;;;0.22;0.22;;;;;;;10.12;100.00;74869.69;6253258;22;20026;-81
2023/11/28 22:42:34;;;;;;;0.30;0.30;;;;;;;9.96;100.00;74849.03;6273938;22;20004;-81
2023/11/28 22:51:53;;;;;;;0.30;0.30;;;;;;;9.91;100.00;74843.06;6303009;22;20013;-81
2023/11/28 22:54:48;;;;;;;0.20;0.20;;;;;;;10.08;100.00;74867.69;6301050;22;20012;-81
2023/11/28 22:57:36;;;;;;;0.30;0.30;;;;;;;9.40;100.00;74783.34;6298124;22;20336;-81
2023/11/28 23:00:22;;;;;;;0.20;0.20;;;;;;;9.52;100.00;74799.25;6296829;22;20234;-81
2023/11/28 23:02:56;;;;;;;0.25;0.25;;;;;;;9.92;100.00;74846.41;6245029;22;20015;-81
2023/11/28 23:05:23;;;;;;;0.20;0.20;;;;;;;9.64;100.00;74808.66;6289779;22;20023;-80
2023/11/28 23:07:50;;;;;;;0.30;0.30;;;;;;;9.46;100.00;74784.41;6269098;22;20007;-80
2023/11/28 23:10:30;;;;;;;0.30;0.30;;;;;;;10.05;100.00;74861.34;6269432;22;20004;-81
2023/11/28 23:13:01;;;;;;;0.20;0.20;;;;;;;9.98;100.00;74854.16;6298504;22;20050;-80
2023/11/28 23:15:32;;;;;;;0.20;0.20;;;;;;;10.14;100.00;74866.56;6298343;22;20313;-81
2023/11/28 23:18:23;;;;;;;0.20;0.20;;;;;;;10.00;100.00;74847.66;6272197;22;20038;-81
2023/11/28 23:20:52;;;;;;;0.30;0.30;;;;;;;9.91;100.00;74842.47;6298868;22;19999;-81
2023/11/28 23:23:21;;;;;;;0.20;0.20;;;;;;;9.70;100.00;74818.00;6244866;22;20035;-81
2023/11/28 23:26:14;;;;;;;0.20;0.20;;;;;;;9.97;100.00;74849.63;6277406;22;20014;-81
2023/11/28 23:28:43;;;;;;;0.20;0.20;;;;;;;9.70;100.00;74824.09;6302407;22;20061;-81
2023/11/28 23:31:38;;;;;;;0.20;0.20;;;;;;;10.13;100.00;74868.13;6274442;22;20023;-81
2023/11/28 23:34:33;;;;;;;0.20;0.20;;;;;;;9.50;100.00;74794.69;6299997;22;20004;-81
2023/11/28 23:37:13;;;;;;;0.20;0.20;;;;;;;9.86;100.00;74834.31;6302196;22;20003;-81
2023/11/28 23:40:02;;;;;;;0.30;0.30;;;;;;;9.64;100.00;74808.66;6302515;22;20143;-81
2023/11/28 23:42:35;;;;;;;0.30;0.30;;;;;;;9.92;100.00;74849.19;6302163;22;20007;-81
2023/11/28 23:45:05;;;;;;;0.20;0.20;;;;;;;9.59;100.00;74802.69;6250954;22;20012;-81
2023/11/28 23:47:36;;;;;;;0.20;0.20;;;;;;;9.91;100.00;74842.47;6271492;22;20049;-81
2023/11/28 23:50:01;;;;;;;0.20;0.20;;;;;;;9.50;100.00;74796.88;6299054;22;20008;-81
2023/11/28 23:52:32;;;;;;;0.30;0.30;;;;;;;9.48;100.00;74788.94;6248386;22;20030;-81
2023/11/28 23:55:09;;;;;;;0.20;0.20;;;;;;;9.35;100.00;74780.16;6270885;22;20012;-81
2023/11/28 23:57:38;;;;;;;0.20;0.20;;;;;;;9.38;100.00;74780.97;6270637;22;20099;-81
